Hurghada, Egypt

3:35 PM EET on October 25, 2014 (GMT +0200)
Hurghada International | Change Station
CLOSE
Current Station
Airport
Location: Hurghada,
Elevation: 46 ft
Nearby Weather Stations

Elev 46 ft 27.18 °N, 33.80 °E | Updated 35 minutes ago

Clear
Clear
91 °F
Feels Like 89 °F
N
10
Wind Variable Wind from North

Today
High -- | Low -- °F
--% Chance of Precip.
Yesterday
High -- | Low -- °F
Precip. -- in
5:50 AM 5:07 PM
Waxing Crescent, 3% visible
Pressure 29.89 in
Visibility -9999.0 miles
Clouds
Heat Index 89 °F
Dew Point 54 °F
Humidity 28%
Rainfall 0.00 in
Snow Depth Not available.
UV Not available.
Pollen Not available.
Air Quality Not available.
Flu Activity Not available.
METAR HEGN 251300Z 01009KT CAVOK 33/12 Q1012 NOSIG

More Conditions Fewer Conditions

Pressure 29.89 in
Visibility -9999.0 miles
Clouds
Heat Index 89 °F
Dew Point 54 °F
Humidity 28%
Rainfall 0.00 in
Snow Depth Not available.
UV Not available.
Pollen Not available.
Air Quality Not available.
Flu Activity Not available.
METAR HEGN 251300Z 01009KT CAVOK 33/12 Q1012 NOSIG

More Conditions Fewer Conditions

10-Day Weather Forecast

Almanac

Astronomy

Oct. 25, 2014 Rise Set
Actual Time 5:50 AM EET 5:07 PM EET
Civil Twilight 5:26 AM EET 5:31 PM EET
Nautical Twilight 4:59 AM EET 5:58 PM EET
Astronomical Twilight 4:32 AM EET 6:25 PM EET
Moon 7:03 AM EET 6:21 PM EET
Length of Visible Light 12h 04m
Length of Day
11h 17m
Tomorrow will be 1m 29s shorter.
Waxing Crescent, 3% of the Moon is Illuminated
Today
Waxing Crescent
Oct 30
First Quarter
Nov 6
Full
Nov 14
Last Quarter
Nov 22
New

Yesterday's Extremes

Country Highs Country Lows

Community

WunderPhotos

Upload Photos

1,764,829 photos uploaded!

Nearby

Snow Depth

Not available.

Earthquake Activity

City Distance Mag. Time & Date
No recent earthquake activity has been reported nearby.
Minimum magnitude displayed is 2.5.

Coastal Water Temperatures

Place Temperature
No Stations Reporting

Nearby Weather Stations